sensor_id;sensor_type;location;lat;lon;timestamp;P1;durP1;ratioP1;P2;durP2;ratioP2
24619;SDS011;12763;55.802;37.404;2024-03-07T00:00:04;16.40;;;4.28;;
24619;SDS011;12763;55.802;37.404;2024-03-07T00:02:41;14.05;;;4.70;;
24619;SDS011;12763;55.802;37.404;2024-03-07T00:05:11;12.18;;;5.10;;
24619;SDS011;12763;55.802;37.404;2024-03-07T00:07:38;9.68;;;3.38;;
24619;SDS011;12763;55.802;37.404;2024-03-07T00:10:05;14.00;;;4.47;;
24619;SDS011;12763;55.802;37.404;2024-03-07T00:12:33;10.40;;;3.78;;
24619;SDS011;12763;55.802;37.404;2024-03-07T00:15:02;10.07;;;4.03;;
24619;SDS011;12763;55.802;37.404;2024-03-07T00:17:31;21.02;;;4.80;;
24619;SDS011;12763;55.802;37.404;2024-03-07T00:19:56;13.68;;;3.58;;
24619;SDS011;12763;55.802;37.404;2024-03-07T00:22:23;12.13;;;4.07;;
24619;SDS011;12763;55.802;37.404;2024-03-07T00:24:52;15.48;;;4.28;;
24619;SDS011;12763;55.802;37.404;2024-03-07T00:27:19;20.35;;;4.00;;
24619;SDS011;12763;55.802;37.404;2024-03-07T00:29:47;10.05;;;4.35;;
24619;SDS011;12763;55.802;37.404;2024-03-07T00:32:19;15.45;;;4.43;;
24619;SDS011;12763;55.802;37.404;2024-03-07T00:34:49;15.15;;;4.00;;
24619;SDS011;12763;55.802;37.404;2024-03-07T00:37:18;12.93;;;4.45;;
24619;SDS011;12763;55.802;37.404;2024-03-07T00:39:44;24.35;;;4.88;;
24619;SDS011;12763;55.802;37.404;2024-03-07T00:42:10;16.38;;;4.97;;
24619;SDS011;12763;55.802;37.404;2024-03-07T00:44:37;18.35;;;4.45;;
24619;SDS011;12763;55.802;37.404;2024-03-07T00:47:03;14.40;;;4.82;;
24619;SDS011;12763;55.802;37.404;2024-03-07T00:49:30;22.70;;;4.95;;
24619;SDS011;12763;55.802;37.404;2024-03-07T00:51:59;20.83;;;4.82;;
24619;SDS011;12763;55.802;37.404;2024-03-07T00:54:25;10.23;;;4.10;;
24619;SDS011;12763;55.802;37.404;2024-03-07T00:56:51;13.55;;;4.57;;
24619;SDS011;12763;55.802;37.404;2024-03-07T00:59:18;8.85;;;4.30;;
24619;SDS011;12763;55.802;37.404;2024-03-07T01:01:44;19.88;;;4.88;;
24619;SDS011;12763;55.802;37.404;2024-03-07T01:04:10;14.48;;;5.03;;
24619;SDS011;12763;55.802;37.404;2024-03-07T01:06:37;18.90;;;4.93;;
24619;SDS011;12763;55.802;37.404;2024-03-07T01:09:03;13.77;;;4.88;;
24619;SDS011;12763;55.802;37.404;2024-03-07T01:11:29;20.13;;;5.40;;
24619;SDS011;12763;55.802;37.404;2024-03-07T01:13:55;11.25;;;5.20;;
24619;SDS011;12763;55.802;37.404;2024-03-07T01:16:22;21.15;;;5.70;;
24619;SDS011;12763;55.802;37.404;2024-03-07T01:18:48;13.80;;;5.43;;
24619;SDS011;12763;55.802;37.404;2024-03-07T01:21:14;18.40;;;4.57;;
24619;SDS011;12763;55.802;37.404;2024-03-07T01:23:40;16.88;;;5.95;;
24619;SDS011;12763;55.802;37.404;2024-03-07T01:26:06;17.35;;;4.95;;
24619;SDS011;12763;55.802;37.404;2024-03-07T01:28:34;12.63;;;4.45;;
24619;SDS011;12763;55.802;37.404;2024-03-07T01:31:00;18.08;;;5.53;;
24619;SDS011;12763;55.802;37.404;2024-03-07T01:33:26;19.15;;;5.15;;
24619;SDS011;12763;55.802;37.404;2024-03-07T01:35:52;11.38;;;4.22;;
24619;SDS011;12763;55.802;37.404;2024-03-07T01:38:18;11.90;;;4.57;;
24619;SDS011;12763;55.802;37.404;2024-03-07T01:40:45;10.57;;;4.28;;
24619;SDS011;12763;55.802;37.404;2024-03-07T01:43:11;13.18;;;4.78;;
24619;SDS011;12763;55.802;37.404;2024-03-07T01:45:37;11.75;;;4.80;;
24619;SDS011;12763;55.802;37.404;2024-03-07T01:48:08;12.90;;;4.47;;
24619;SDS011;12763;55.802;37.404;2024-03-07T01:50:35;17.50;;;5.10;;
24619;SDS011;12763;55.802;37.404;2024-03-07T01:53:09;18.10;;;5.03;;
24619;SDS011;12763;55.802;37.404;2024-03-07T01:55:37;17.20;;;4.07;;
24619;SDS011;12763;55.802;37.404;2024-03-07T01:58:04;16.20;;;4.22;;
24619;SDS011;12763;55.802;37.404;2024-03-07T02:00:31;10.70;;;3.95;;
24619;SDS011;12763;55.802;37.404;2024-03-07T02:02:57;12.13;;;3.88;;
24619;SDS011;12763;55.802;37.404;2024-03-07T02:05:23;16.90;;;4.57;;
24619;SDS011;12763;55.802;37.404;2024-03-07T02:07:50;8.30;;;4.18;;
24619;SDS011;12763;55.802;37.404;2024-03-07T02:10:16;10.85;;;3.60;;
24619;SDS011;12763;55.802;37.404;2024-03-07T02:12:44;13.80;;;3.72;;
24619;SDS011;12763;55.802;37.404;2024-03-07T02:15:13;8.98;;;3.40;;
24619;SDS011;12763;55.802;37.404;2024-03-07T02:17:39;11.02;;;3.65;;
24619;SDS011;12763;55.802;37.404;2024-03-07T02:20:06;8.52;;;3.65;;
24619;SDS011;12763;55.802;37.404;2024-03-07T02:22:38;8.63;;;3.63;;
24619;SDS011;12763;55.802;37.404;2024-03-07T02:25:07;10.63;;;4.38;;
24619;SDS011;12763;55.802;37.404;2024-03-07T02:27:37;7.50;;;3.42;;
24619;SDS011;12763;55.802;37.404;2024-03-07T02:30:03;9.75;;;3.00;;
24619;SDS011;12763;55.802;37.404;2024-03-07T02:32:31;9.48;;;3.50;;
24619;SDS011;12763;55.802;37.404;2024-03-07T02:34:58;7.57;;;2.88;;
24619;SDS011;12763;55.802;37.404;2024-03-07T02:37:24;10.48;;;4.07;;
24619;SDS011;12763;55.802;37.404;2024-03-07T02:39:50;13.30;;;3.67;;
24619;SDS011;12763;55.802;37.404;2024-03-07T02:42:15;11.80;;;4.03;;
24619;SDS011;12763;55.802;37.404;2024-03-07T02:44:41;7.53;;;3.53;;
24619;SDS011;12763;55.802;37.404;2024-03-07T02:47:07;9.60;;;3.53;;
24619;SDS011;12763;55.802;37.404;2024-03-07T02:49:33;11.68;;;3.90;;
24619;SDS011;12763;55.802;37.404;2024-03-07T02:52:00;11.43;;;3.88;;
24619;SDS011;12763;55.802;37.404;2024-03-07T02:54:26;10.02;;;3.50;;
24619;SDS011;12763;55.802;37.404;2024-03-07T02:56:51;11.57;;;3.72;;
24619;SDS011;12763;55.802;37.404;2024-03-07T02:59:17;16.00;;;4.43;;
24619;SDS011;12763;55.802;37.404;2024-03-07T03:01:43;12.93;;;4.45;;
24619;SDS011;12763;55.802;37.404;2024-03-07T03:04:09;10.52;;;4.53;;
24619;SDS011;12763;55.802;37.404;2024-03-07T03:06:35;12.43;;;4.22;;
24619;SDS011;12763;55.802;37.404;2024-03-07T03:09:00;17.80;;;4.82;;
24619;SDS011;12763;55.802;37.404;2024-03-07T03:11:27;12.45;;;5.72;;
24619;SDS011;12763;55.802;37.404;2024-03-07T03:13:53;9.38;;;4.20;;
24619;SDS011;12763;55.802;37.404;2024-03-07T03:16:19;8.40;;;3.63;;
24619;SDS011;12763;55.802;37.404;2024-03-07T03:18:45;13.50;;;4.13;;
24619;SDS011;12763;55.802;37.404;2024-03-07T03:21:11;10.20;;;4.07;;
24619;SDS011;12763;55.802;37.404;2024-03-07T03:23:37;17.55;;;4.22;;
24619;SDS011;12763;55.802;37.404;2024-03-07T03:26:03;8.90;;;4.28;;
24619;SDS011;12763;55.802;37.404;2024-03-07T03:28:29;11.20;;;4.72;;
24619;SDS011;12763;55.802;37.404;2024-03-07T03:30:55;6.65;;;3.15;;
24619;SDS011;12763;55.802;37.404;2024-03-07T03:33:21;15.05;;;4.10;;
24619;SDS011;12763;55.802;37.404;2024-03-07T03:35:47;8.80;;;3.50;;
24619;SDS011;12763;55.802;37.404;2024-03-07T03:38:13;18.33;;;4.40;;
24619;SDS011;12763;55.802;37.404;2024-03-07T03:40:39;15.25;;;4.75;;
24619;SDS011;12763;55.802;37.404;2024-03-07T03:43:05;16.48;;;5.35;;
24619;SDS011;12763;55.802;37.404;2024-03-07T03:45:31;16.25;;;5.65;;
24619;SDS011;12763;55.802;37.404;2024-03-07T03:47:59;10.10;;;4.35;;
24619;SDS011;12763;55.802;37.404;2024-03-07T03:50:25;8.48;;;4.10;;
24619;SDS011;12763;55.802;37.404;2024-03-07T03:52:52;9.43;;;4.22;;
24619;SDS011;12763;55.802;37.404;2024-03-07T03:55:18;19.38;;;4.35;;
24619;SDS011;12763;55.802;37.404;2024-03-07T03:57:44;14.07;;;4.88;;
24619;SDS011;12763;55.802;37.404;2024-03-07T04:00:14;10.52;;;4.35;;
24619;SDS011;12763;55.802;37.404;2024-03-07T04:02:41;10.98;;;4.40;;
24619;SDS011;12763;55.802;37.404;2024-03-07T04:05:08;10.90;;;4.50;;
24619;SDS011;12763;55.802;37.404;2024-03-07T04:07:35;13.07;;;5.30;;
24619;SDS011;12763;55.802;37.404;2024-03-07T04:10:01;11.85;;;5.20;;
24619;SDS011;12763;55.802;37.404;2024-03-07T04:12:35;22.77;;;5.05;;
24619;SDS011;12763;55.802;37.404;2024-03-07T04:15:03;15.00;;;4.65;;
24619;SDS011;12763;55.802;37.404;2024-03-07T04:17:30;13.10;;;4.40;;
24619;SDS011;12763;55.802;37.404;2024-03-07T04:19:57;16.77;;;5.50;;
24619;SDS011;12763;55.802;37.404;2024-03-07T04:22:25;12.63;;;4.43;;
24619;SDS011;12763;55.802;37.404;2024-03-07T04:24:52;14.27;;;4.25;;
24619;SDS011;12763;55.802;37.404;2024-03-07T04:27:20;12.48;;;5.32;;
24619;SDS011;12763;55.802;37.404;2024-03-07T04:29:48;15.25;;;4.80;;
24619;SDS011;12763;55.802;37.404;2024-03-07T04:32:15;16.52;;;5.65;;
24619;SDS011;12763;55.802;37.404;2024-03-07T04:34:43;18.15;;;5.00;;
24619;SDS011;12763;55.802;37.404;2024-03-07T04:37:09;11.55;;;4.60;;
24619;SDS011;12763;55.802;37.404;2024-03-07T04:39:36;13.27;;;4.55;;
24619;SDS011;12763;55.802;37.404;2024-03-07T04:44:51;13.35;;;4.53;;
24619;SDS011;12763;55.802;37.404;2024-03-07T04:47:17;14.45;;;5.30;;
24619;SDS011;12763;55.802;37.404;2024-03-07T04:49:43;12.63;;;6.70;;
24619;SDS011;12763;55.802;37.404;2024-03-07T04:52:09;17.38;;;5.65;;
24619;SDS011;12763;55.802;37.404;2024-03-07T04:54:35;20.60;;;5.20;;
24619;SDS011;12763;55.802;37.404;2024-03-07T04:57:02;10.35;;;4.93;;
24619;SDS011;12763;55.802;37.404;2024-03-07T04:59:27;16.35;;;5.45;;
24619;SDS011;12763;55.802;37.404;2024-03-07T05:01:53;18.60;;;5.07;;
24619;SDS011;12763;55.802;37.404;2024-03-07T05:04:19;9.52;;;4.75;;
24619;SDS011;12763;55.802;37.404;2024-03-07T05:06:45;13.30;;;4.57;;
24619;SDS011;12763;55.802;37.404;2024-03-07T05:09:16;17.70;;;5.05;;
24619;SDS011;12763;55.802;37.404;2024-03-07T05:11:51;17.83;;;5.18;;
24619;SDS011;12763;55.802;37.404;2024-03-07T05:14:18;10.90;;;4.57;;
24619;SDS011;12763;55.802;37.404;2024-03-07T05:16:45;14.98;;;5.45;;
24619;SDS011;12763;55.802;37.404;2024-03-07T05:19:13;12.43;;;5.15;;
24619;SDS011;12763;55.802;37.404;2024-03-07T05:21:39;16.08;;;4.68;;
24619;SDS011;12763;55.802;37.404;2024-03-07T05:24:08;14.35;;;4.63;;
24619;SDS011;12763;55.802;37.404;2024-03-07T05:26:34;19.33;;;4.93;;
24619;SDS011;12763;55.802;37.404;2024-03-07T05:29:06;16.40;;;4.53;;
24619;SDS011;12763;55.802;37.404;2024-03-07T05:31:34;12.25;;;4.03;;
24619;SDS011;12763;55.802;37.404;2024-03-07T05:34:01;14.43;;;4.55;;
24619;SDS011;12763;55.802;37.404;2024-03-07T05:36:36;13.18;;;4.75;;
24619;SDS011;12763;55.802;37.404;2024-03-07T05:39:12;13.60;;;4.70;;
24619;SDS011;12763;55.802;37.404;2024-03-07T05:41:57;14.52;;;4.03;;
24619;SDS011;12763;55.802;37.404;2024-03-07T05:44:23;13.60;;;3.72;;
24619;SDS011;12763;55.802;37.404;2024-03-07T05:46:49;14.18;;;4.53;;
24619;SDS011;12763;55.802;37.404;2024-03-07T05:49:16;12.25;;;5.05;;
24619;SDS011;12763;55.802;37.404;2024-03-07T05:51:46;10.27;;;4.65;;
24619;SDS011;12763;55.802;37.404;2024-03-07T05:54:12;11.15;;;4.40;;
24619;SDS011;12763;55.802;37.404;2024-03-07T05:56:39;18.13;;;5.20;;
24619;SDS011;12763;55.802;37.404;2024-03-07T05:59:06;11.93;;;4.28;;
24619;SDS011;12763;55.802;37.404;2024-03-07T06:01:38;16.17;;;4.35;;
24619;SDS011;12763;55.802;37.404;2024-03-07T06:04:05;14.77;;;4.38;;
24619;SDS011;12763;55.802;37.404;2024-03-07T06:06:33;20.77;;;4.63;;
24619;SDS011;12763;55.802;37.404;2024-03-07T06:09:02;12.93;;;4.80;;
24619;SDS011;12763;55.802;37.404;2024-03-07T06:11:37;11.25;;;4.75;;
24619;SDS011;12763;55.802;37.404;2024-03-07T06:14:05;12.13;;;4.85;;
24619;SDS011;12763;55.802;37.404;2024-03-07T06:16:33;13.93;;;4.88;;
24619;SDS011;12763;55.802;37.404;2024-03-07T06:19:04;14.18;;;5.07;;
24619;SDS011;12763;55.802;37.404;2024-03-07T06:21:35;16.90;;;5.22;;
24619;SDS011;12763;55.802;37.404;2024-03-07T06:24:02;29.65;;;4.93;;
24619;SDS011;12763;55.802;37.404;2024-03-07T06:26:29;11.90;;;4.47;;
24619;SDS011;12763;55.802;37.404;2024-03-07T06:29:15;11.82;;;4.38;;
24619;SDS011;12763;55.802;37.404;2024-03-07T06:31:42;22.25;;;5.32;;
24619;SDS011;12763;55.802;37.404;2024-03-07T06:34:09;15.50;;;4.63;;
24619;SDS011;12763;55.802;37.404;2024-03-07T06:36:35;41.00;;;5.93;;
24619;SDS011;12763;55.802;37.404;2024-03-07T06:39:01;16.42;;;5.10;;
24619;SDS011;12763;55.802;37.404;2024-03-07T06:41:31;15.07;;;4.78;;
24619;SDS011;12763;55.802;37.404;2024-03-07T06:44:01;28.05;;;5.90;;
24619;SDS011;12763;55.802;37.404;2024-03-07T06:46:28;14.02;;;5.72;;
24619;SDS011;12763;55.802;37.404;2024-03-07T06:48:54;10.60;;;4.55;;
24619;SDS011;12763;55.802;37.404;2024-03-07T06:51:24;20.15;;;5.40;;
24619;SDS011;12763;55.802;37.404;2024-03-07T06:53:50;11.98;;;5.05;;
24619;SDS011;12763;55.802;37.404;2024-03-07T06:56:16;13.73;;;5.82;;
24619;SDS011;12763;55.802;37.404;2024-03-07T06:58:43;23.88;;;5.53;;
24619;SDS011;12763;55.802;37.404;2024-03-07T07:01:13;23.67;;;5.25;;
24619;SDS011;12763;55.802;37.404;2024-03-07T07:03:41;18.55;;;5.75;;
24619;SDS011;12763;55.802;37.404;2024-03-07T07:06:10;22.33;;;4.88;;
24619;SDS011;12763;55.802;37.404;2024-03-07T07:08:36;23.95;;;5.30;;
24619;SDS011;12763;55.802;37.404;2024-03-07T07:11:02;18.27;;;5.55;;
24619;SDS011;12763;55.802;37.404;2024-03-07T07:13:31;18.05;;;5.80;;
24619;SDS011;12763;55.802;37.404;2024-03-07T07:15:58;22.27;;;6.38;;
24619;SDS011;12763;55.802;37.404;2024-03-07T07:18:24;21.67;;;5.28;;
24619;SDS011;12763;55.802;37.404;2024-03-07T07:20:50;12.05;;;3.92;;
24619;SDS011;12763;55.802;37.404;2024-03-07T07:23:19;8.60;;;4.18;;
24619;SDS011;12763;55.802;37.404;2024-03-07T07:25:46;10.48;;;4.55;;
24619;SDS011;12763;55.802;37.404;2024-03-07T07:28:12;11.65;;;4.60;;
24619;SDS011;12763;55.802;37.404;2024-03-07T07:30:39;15.20;;;5.00;;
24619;SDS011;12763;55.802;37.404;2024-03-07T07:33:05;12.45;;;4.63;;
24619;SDS011;12763;55.802;37.404;2024-03-07T07:35:31;16.17;;;4.47;;
24619;SDS011;12763;55.802;37.404;2024-03-07T07:38:00;16.88;;;4.97;;
24619;SDS011;12763;55.802;37.404;2024-03-07T07:40:25;28.45;;;5.22;;
24619;SDS011;12763;55.802;37.404;2024-03-07T07:42:53;16.35;;;5.88;;
24619;SDS011;12763;55.802;37.404;2024-03-07T07:45:21;11.45;;;4.63;;
24619;SDS011;12763;55.802;37.404;2024-03-07T07:47:49;14.98;;;4.60;;
24619;SDS011;12763;55.802;37.404;2024-03-07T07:50:19;22.45;;;5.20;;
24619;SDS011;12763;55.802;37.404;2024-03-07T07:52:53;15.68;;;4.93;;
24619;SDS011;12763;55.802;37.404;2024-03-07T07:55:24;15.23;;;4.63;;
24619;SDS011;12763;55.802;37.404;2024-03-07T07:57:54;16.27;;;4.53;;
24619;SDS011;12763;55.802;37.404;2024-03-07T08:00:22;18.27;;;4.20;;
24619;SDS011;12763;55.802;37.404;2024-03-07T08:05:20;13.50;;;3.95;;
24619;SDS011;12763;55.802;37.404;2024-03-07T08:07:51;10.05;;;4.25;;
24619;SDS011;12763;55.802;37.404;2024-03-07T08:10:18;11.50;;;3.67;;
24619;SDS011;12763;55.802;37.404;2024-03-07T08:12:44;15.70;;;3.78;;
24619;SDS011;12763;55.802;37.404;2024-03-07T08:15:11;12.20;;;3.47;;
24619;SDS011;12763;55.802;37.404;2024-03-07T08:17:45;18.00;;;4.45;;
24619;SDS011;12763;55.802;37.404;2024-03-07T08:20:14;14.18;;;4.35;;
24619;SDS011;12763;55.802;37.404;2024-03-07T08:22:46;19.42;;;4.88;;
24619;SDS011;12763;55.802;37.404;2024-03-07T08:25:13;16.30;;;3.90;;
24619;SDS011;12763;55.802;37.404;2024-03-07T08:27:41;11.52;;;3.80;;
24619;SDS011;12763;55.802;37.404;2024-03-07T08:30:09;13.00;;;3.83;;
24619;SDS011;12763;55.802;37.404;2024-03-07T08:35:10;11.32;;;3.58;;
24619;SDS011;12763;55.802;37.404;2024-03-07T08:37:38;15.93;;;3.38;;
24619;SDS011;12763;55.802;37.404;2024-03-07T08:40:06;7.97;;;3.50;;
24619;SDS011;12763;55.802;37.404;2024-03-07T08:42:36;13.10;;;3.42;;
24619;SDS011;12763;55.802;37.404;2024-03-07T08:45:03;7.50;;;3.20;;
24619;SDS011;12763;55.802;37.404;2024-03-07T08:47:33;7.65;;;3.83;;
24619;SDS011;12763;55.802;37.404;2024-03-07T08:50:00;14.95;;;3.97;;
24619;SDS011;12763;55.802;37.404;2024-03-07T08:52:30;9.52;;;5.10;;
24619;SDS011;12763;55.802;37.404;2024-03-07T08:54:57;9.27;;;3.28;;
24619;SDS011;12763;55.802;37.404;2024-03-07T08:57:23;11.52;;;3.67;;
24619;SDS011;12763;55.802;37.404;2024-03-07T08:59:49;8.43;;;3.50;;
24619;SDS011;12763;55.802;37.404;2024-03-07T09:02:15;12.52;;;3.78;;
24619;SDS011;12763;55.802;37.404;2024-03-07T09:04:41;10.82;;;3.38;;
24619;SDS011;12763;55.802;37.404;2024-03-07T09:07:07;9.30;;;3.10;;
24619;SDS011;12763;55.802;37.404;2024-03-07T09:09:33;8.88;;;3.08;;
24619;SDS011;12763;55.802;37.404;2024-03-07T09:12:00;8.45;;;3.20;;
24619;SDS011;12763;55.802;37.404;2024-03-07T09:14:27;7.35;;;2.97;;
24619;SDS011;12763;55.802;37.404;2024-03-07T09:16:53;11.55;;;3.17;;
24619;SDS011;12763;55.802;37.404;2024-03-07T09:19:19;7.25;;;3.50;;
24619;SDS011;12763;55.802;37.404;2024-03-07T09:21:52;11.35;;;3.55;;
24619;SDS011;12763;55.802;37.404;2024-03-07T09:24:19;15.07;;;4.00;;
24619;SDS011;12763;55.802;37.404;2024-03-07T09:26:49;6.15;;;3.03;;
24619;SDS011;12763;55.802;37.404;2024-03-07T09:29:17;6.90;;;3.22;;
24619;SDS011;12763;55.802;37.404;2024-03-07T09:31:48;10.65;;;3.38;;
24619;SDS011;12763;55.802;37.404;2024-03-07T09:34:17;11.13;;;3.85;;
24619;SDS011;12763;55.802;37.404;2024-03-07T09:36:44;9.70;;;3.28;;
24619;SDS011;12763;55.802;37.404;2024-03-07T09:39:11;8.88;;;2.92;;
24619;SDS011;12763;55.802;37.404;2024-03-07T09:41:42;8.18;;;2.90;;
24619;SDS011;12763;55.802;37.404;2024-03-07T09:44:08;10.35;;;3.30;;
24619;SDS011;12763;55.802;37.404;2024-03-07T09:46:38;7.28;;;2.90;;
24619;SDS011;12763;55.802;37.404;2024-03-07T09:49:05;7.68;;;3.10;;
24619;SDS011;12763;55.802;37.404;2024-03-07T09:51:31;4.97;;;2.25;;
24619;SDS011;12763;55.802;37.404;2024-03-07T09:54:00;6.47;;;2.88;;
24619;SDS011;12763;55.802;37.404;2024-03-07T09:56:27;9.48;;;2.78;;
24619;SDS011;12763;55.802;37.404;2024-03-07T09:58:56;5.20;;;2.85;;
24619;SDS011;12763;55.802;37.404;2024-03-07T10:01:25;10.43;;;2.70;;
24619;SDS011;12763;55.802;37.404;2024-03-07T10:03:55;8.32;;;3.15;;
24619;SDS011;12763;55.802;37.404;2024-03-07T10:06:24;9.15;;;3.10;;
24619;SDS011;12763;55.802;37.404;2024-03-07T10:08:54;7.93;;;2.35;;
24619;SDS011;12763;55.802;37.404;2024-03-07T10:11:21;11.25;;;2.97;;
24619;SDS011;12763;55.802;37.404;2024-03-07T10:13:48;5.43;;;2.50;;
24619;SDS011;12763;55.802;37.404;2024-03-07T10:16:18;10.50;;;2.58;;
24619;SDS011;12763;55.802;37.404;2024-03-07T10:18:44;5.70;;;2.50;;
24619;SDS011;12763;55.802;37.404;2024-03-07T10:21:14;10.80;;;2.80;;
24619;SDS011;12763;55.802;37.404;2024-03-07T10:23:42;4.18;;;2.05;;
24619;SDS011;12763;55.802;37.404;2024-03-07T10:26:08;6.15;;;2.60;;
24619;SDS011;12763;55.802;37.404;2024-03-07T10:28:37;5.32;;;2.45;;
24619;SDS011;12763;55.802;37.404;2024-03-07T10:31:04;7.22;;;3.00;;
24619;SDS011;12763;55.802;37.404;2024-03-07T10:33:37;4.57;;;2.47;;
24619;SDS011;12763;55.802;37.404;2024-03-07T10:36:05;6.10;;;2.33;;
24619;SDS011;12763;55.802;37.404;2024-03-07T10:38:38;10.25;;;2.78;;
24619;SDS011;12763;55.802;37.404;2024-03-07T10:41:05;4.45;;;2.40;;
24619;SDS011;12763;55.802;37.404;2024-03-07T10:43:35;7.25;;;2.47;;
24619;SDS011;12763;55.802;37.404;2024-03-07T10:46:05;3.42;;;2.00;;
24619;SDS011;12763;55.802;37.404;2024-03-07T10:48:33;6.20;;;2.45;;
24619;SDS011;12763;55.802;37.404;2024-03-07T10:53:59;6.20;;;2.47;;
24619;SDS011;12763;55.802;37.404;2024-03-07T10:59:21;7.05;;;2.28;;
24619;SDS011;12763;55.802;37.404;2024-03-07T11:01:59;5.97;;;2.17;;
24619;SDS011;12763;55.802;37.404;2024-03-07T11:04:41;5.53;;;2.15;;
24619;SDS011;12763;55.802;37.404;2024-03-07T11:07:09;6.57;;;2.88;;
24619;SDS011;12763;55.802;37.404;2024-03-07T11:09:37;4.72;;;2.53;;
24619;SDS011;12763;55.802;37.404;2024-03-07T11:12:08;12.52;;;2.65;;
24619;SDS011;12763;55.802;37.404;2024-03-07T11:14:37;5.85;;;2.55;;
24619;SDS011;12763;55.802;37.404;2024-03-07T11:17:04;7.63;;;2.38;;
24619;SDS011;12763;55.802;37.404;2024-03-07T11:19:34;8.10;;;2.42;;
24619;SDS011;12763;55.802;37.404;2024-03-07T11:22:03;5.72;;;2.90;;
24619;SDS011;12763;55.802;37.404;2024-03-07T11:24:40;5.75;;;3.05;;
24619;SDS011;12763;55.802;37.404;2024-03-07T11:27:11;7.60;;;3.03;;
24619;SDS011;12763;55.802;37.404;2024-03-07T11:32:13;12.90;;;3.67;;
24619;SDS011;12763;55.802;37.404;2024-03-07T11:34:40;9.43;;;2.70;;
24619;SDS011;12763;55.802;37.404;2024-03-07T11:37:09;6.82;;;2.55;;
24619;SDS011;12763;55.802;37.404;2024-03-07T11:39:46;6.95;;;2.58;;
24619;SDS011;12763;55.802;37.404;2024-03-07T11:42:22;7.50;;;2.58;;
24619;SDS011;12763;55.802;37.404;2024-03-07T11:44:52;4.95;;;2.50;;
24619;SDS011;12763;55.802;37.404;2024-03-07T11:47:22;11.95;;;2.95;;
24619;SDS011;12763;55.802;37.404;2024-03-07T11:49:50;6.55;;;2.42;;
24619;SDS011;12763;55.802;37.404;2024-03-07T11:52:18;5.68;;;3.10;;
24619;SDS011;12763;55.802;37.404;2024-03-07T11:54:44;5.40;;;2.38;;
24619;SDS011;12763;55.802;37.404;2024-03-07T11:57:14;7.95;;;2.78;;
24619;SDS011;12763;55.802;37.404;2024-03-07T11:59:42;5.25;;;2.72;;
24619;SDS011;12763;55.802;37.404;2024-03-07T12:02:14;6.18;;;2.50;;
24619;SDS011;12763;55.802;37.404;2024-03-07T12:04:41;8.40;;;3.22;;
24619;SDS011;12763;55.802;37.404;2024-03-07T12:07:07;3.88;;;2.40;;
24619;SDS011;12763;55.802;37.404;2024-03-07T12:09:37;4.00;;;2.10;;
24619;SDS011;12763;55.802;37.404;2024-03-07T12:12:04;4.75;;;2.42;;
24619;SDS011;12763;55.802;37.404;2024-03-07T12:14:34;6.32;;;2.80;;
24619;SDS011;12763;55.802;37.404;2024-03-07T12:17:01;7.28;;;2.58;;
24619;SDS011;12763;55.802;37.404;2024-03-07T12:19:32;8.52;;;2.53;;
24619;SDS011;12763;55.802;37.404;2024-03-07T12:22:02;5.68;;;2.15;;
24619;SDS011;12763;55.802;37.404;2024-03-07T12:24:29;7.65;;;2.30;;
24619;SDS011;12763;55.802;37.404;2024-03-07T12:27:05;7.05;;;2.00;;
24619;SDS011;12763;55.802;37.404;2024-03-07T12:29:35;4.60;;;2.00;;
24619;SDS011;12763;55.802;37.404;2024-03-07T12:32:04;5.57;;;2.60;;
24619;SDS011;12763;55.802;37.404;2024-03-07T12:34:36;7.05;;;2.95;;
24619;SDS011;12763;55.802;37.404;2024-03-07T12:37:06;4.32;;;2.17;;
24619;SDS011;12763;55.802;37.404;2024-03-07T12:39:35;4.65;;;2.08;;
24619;SDS011;12763;55.802;37.404;2024-03-07T12:42:04;18.73;;;2.38;;
24619;SDS011;12763;55.802;37.404;2024-03-07T12:44:41;3.10;;;2.00;;
24619;SDS011;12763;55.802;37.404;2024-03-07T12:47:17;12.05;;;2.42;;
24619;SDS011;12763;55.802;37.404;2024-03-07T12:49:43;5.50;;;2.33;;
24619;SDS011;12763;55.802;37.404;2024-03-07T12:52:10;14.27;;;2.63;;
24619;SDS011;12763;55.802;37.404;2024-03-07T12:54:41;5.95;;;2.10;;
24619;SDS011;12763;55.802;37.404;2024-03-07T12:57:08;12.63;;;2.40;;
24619;SDS011;12763;55.802;37.404;2024-03-07T12:59:36;8.90;;;2.50;;
24619;SDS011;12763;55.802;37.404;2024-03-07T13:02:08;4.15;;;2.08;;
24619;SDS011;12763;55.802;37.404;2024-03-07T13:04:35;7.18;;;2.22;;
24619;SDS011;12763;55.802;37.404;2024-03-07T13:07:05;3.45;;;1.45;;
24619;SDS011;12763;55.802;37.404;2024-03-07T13:09:32;3.88;;;1.52;;
24619;SDS011;12763;55.802;37.404;2024-03-07T13:11:59;6.18;;;1.98;;
24619;SDS011;12763;55.802;37.404;2024-03-07T13:14:35;7.47;;;1.80;;
24619;SDS011;12763;55.802;37.404;2024-03-07T13:17:02;4.00;;;1.88;;
24619;SDS011;12763;55.802;37.404;2024-03-07T13:19:30;5.15;;;2.15;;
24619;SDS011;12763;55.802;37.404;2024-03-07T13:21:56;2.40;;;1.70;;
24619;SDS011;12763;55.802;37.404;2024-03-07T13:24:23;7.20;;;2.13;;
24619;SDS011;12763;55.802;37.404;2024-03-07T13:26:50;7.00;;;1.95;;
24619;SDS011;12763;55.802;37.404;2024-03-07T13:29:16;4.40;;;1.55;;
24619;SDS011;12763;55.802;37.404;2024-03-07T13:31:48;2.72;;;1.65;;
24619;SDS011;12763;55.802;37.404;2024-03-07T13:34:14;4.25;;;1.90;;
24619;SDS011;12763;55.802;37.404;2024-03-07T13:36:40;10.90;;;2.10;;
24619;SDS011;12763;55.802;37.404;2024-03-07T13:39:08;3.25;;;1.83;;
24619;SDS011;12763;55.802;37.404;2024-03-07T13:41:43;5.82;;;2.00;;
24619;SDS011;12763;55.802;37.404;2024-03-07T13:44:14;5.13;;;2.08;;
24619;SDS011;12763;55.802;37.404;2024-03-07T13:46:41;7.25;;;2.10;;
24619;SDS011;12763;55.802;37.404;2024-03-07T13:49:06;3.53;;;2.15;;
24619;SDS011;12763;55.802;37.404;2024-03-07T13:51:41;4.75;;;2.00;;
24619;SDS011;12763;55.802;37.404;2024-03-07T13:54:19;3.63;;;1.98;;
24619;SDS011;12763;55.802;37.404;2024-03-07T14:08:13;6.63;;;2.35;;
24619;SDS011;12763;55.802;37.404;2024-03-07T14:25:28;4.60;;;1.90;;
24619;SDS011;12763;55.802;37.404;2024-03-07T14:31:00;16.48;;;2.38;;
24619;SDS011;12763;55.802;37.404;2024-03-07T14:34:24;10.85;;;3.08;;
24619;SDS011;12763;55.802;37.404;2024-03-07T14:36:43;6.40;;;2.00;;
24619;SDS011;12763;55.802;37.404;2024-03-07T14:39:11;8.10;;;2.00;;
24619;SDS011;12763;55.802;37.404;2024-03-07T14:41:57;3.20;;;1.73;;
24619;SDS011;12763;55.802;37.404;2024-03-07T14:44:27;10.98;;;1.88;;
24619;SDS011;12763;55.802;37.404;2024-03-07T14:47:02;5.88;;;1.90;;
24619;SDS011;12763;55.802;37.404;2024-03-07T14:49:33;4.68;;;1.25;;
24619;SDS011;12763;55.802;37.404;2024-03-07T14:52:00;5.55;;;1.63;;
24619;SDS011;12763;55.802;37.404;2024-03-07T14:54:27;2.00;;;1.55;;
24619;SDS011;12763;55.802;37.404;2024-03-07T14:56:53;5.15;;;1.70;;
24619;SDS011;12763;55.802;37.404;2024-03-07T14:59:19;8.32;;;2.30;;
24619;SDS011;12763;55.802;37.404;2024-03-07T15:01:46;7.95;;;2.55;;
24619;SDS011;12763;55.802;37.404;2024-03-07T15:04:12;2.78;;;1.58;;
24619;SDS011;12763;55.802;37.404;2024-03-07T15:06:40;2.88;;;1.40;;
24619;SDS011;12763;55.802;37.404;2024-03-07T15:09:07;10.23;;;1.90;;
24619;SDS011;12763;55.802;37.404;2024-03-07T15:11:36;7.43;;;1.70;;
24619;SDS011;12763;55.802;37.404;2024-03-07T15:14:10;8.23;;;3.25;;
24619;SDS011;12763;55.802;37.404;2024-03-07T15:16:36;8.13;;;2.10;;